sensor_id;sensor_type;location;lat;lon;timestamp;P1;durP1;ratioP1;P2;durP2;ratioP2
42194;SDS011;27863;49.440;11.102;2024-01-30T00:02:10;5.70;;;4.77;;
42194;SDS011;27863;49.440;11.102;2024-01-30T00:05:10;6.70;;;6.07;;
42194;SDS011;27863;49.440;11.102;2024-01-30T00:08:11;8.03;;;6.50;;
42194;SDS011;27863;49.440;11.102;2024-01-30T00:11:11;5.90;;;5.30;;
42194;SDS011;27863;49.440;11.102;2024-01-30T00:14:12;7.03;;;6.10;;
42194;SDS011;27863;49.440;11.102;2024-01-30T00:17:13;6.83;;;5.70;;
42194;SDS011;27863;49.440;11.102;2024-01-30T00:20:13;5.23;;;4.77;;
42194;SDS011;27863;49.440;11.102;2024-01-30T00:23:15;5.53;;;4.23;;
42194;SDS011;27863;49.440;11.102;2024-01-30T00:26:16;5.77;;;4.83;;
42194;SDS011;27863;49.440;11.102;2024-01-30T00:29:16;5.07;;;4.50;;
42194;SDS011;27863;49.440;11.102;2024-01-30T00:32:19;5.83;;;5.00;;
42194;SDS011;27863;49.440;11.102;2024-01-30T00:35:20;5.93;;;4.83;;
42194;SDS011;27863;49.440;11.102;2024-01-30T00:38:22;5.13;;;4.73;;
42194;SDS011;27863;49.440;11.102;2024-01-30T00:41:22;5.10;;;4.60;;
42194;SDS011;27863;49.440;11.102;2024-01-30T00:44:23;5.43;;;4.90;;
42194;SDS011;27863;49.440;11.102;2024-01-30T00:47:24;4.77;;;4.30;;
42194;SDS011;27863;49.440;11.102;2024-01-30T00:50:29;5.20;;;4.70;;
42194;SDS011;27863;49.440;11.102;2024-01-30T00:53:29;7.13;;;4.87;;
42194;SDS011;27863;49.440;11.102;2024-01-30T00:56:30;6.20;;;5.30;;
42194;SDS011;27863;49.440;11.102;2024-01-30T00:59:31;4.70;;;4.23;;
42194;SDS011;27863;49.440;11.102;2024-01-30T01:02:35;5.27;;;4.77;;
42194;SDS011;27863;49.440;11.102;2024-01-30T01:05:37;5.03;;;4.57;;
42194;SDS011;27863;49.440;11.102;2024-01-30T01:08:37;6.17;;;5.00;;
42194;SDS011;27863;49.440;11.102;2024-01-30T01:11:38;6.20;;;4.83;;
42194;SDS011;27863;49.440;11.102;2024-01-30T01:14:42;7.77;;;5.10;;
42194;SDS011;27863;49.440;11.102;2024-01-30T01:17:43;5.13;;;4.37;;
42194;SDS011;27863;49.440;11.102;2024-01-30T01:20:43;5.57;;;4.87;;
42194;SDS011;27863;49.440;11.102;2024-01-30T01:23:44;5.10;;;4.60;;
42194;SDS011;27863;49.440;11.102;2024-01-30T01:26:45;4.87;;;4.27;;
42194;SDS011;27863;49.440;11.102;2024-01-30T01:29:47;4.97;;;4.27;;
42194;SDS011;27863;49.440;11.102;2024-01-30T01:32:48;6.20;;;4.43;;
42194;SDS011;27863;49.440;11.102;2024-01-30T01:35:52;5.07;;;4.67;;
42194;SDS011;27863;49.440;11.102;2024-01-30T01:38:55;5.00;;;4.50;;
42194;SDS011;27863;49.440;11.102;2024-01-30T01:41:56;4.87;;;4.47;;
42194;SDS011;27863;49.440;11.102;2024-01-30T01:44:57;5.17;;;4.47;;
42194;SDS011;27863;49.440;11.102;2024-01-30T01:47:58;5.07;;;4.43;;
42194;SDS011;27863;49.440;11.102;2024-01-30T01:51:00;7.67;;;4.63;;
42194;SDS011;27863;49.440;11.102;2024-01-30T01:54:02;6.33;;;4.80;;
42194;SDS011;27863;49.440;11.102;2024-01-30T01:57:03;6.30;;;4.57;;
42194;SDS011;27863;49.440;11.102;2024-01-30T02:00:05;5.90;;;4.23;;
42194;SDS011;27863;49.440;11.102;2024-01-30T02:03:10;5.70;;;4.67;;
42194;SDS011;27863;49.440;11.102;2024-01-30T02:06:15;4.80;;;4.10;;
42194;SDS011;27863;49.440;11.102;2024-01-30T02:09:16;6.50;;;4.80;;
42194;SDS011;27863;49.440;11.102;2024-01-30T02:12:17;4.10;;;3.70;;
42194;SDS011;27863;49.440;11.102;2024-01-30T02:15:18;5.20;;;4.70;;
42194;SDS011;27863;49.440;11.102;2024-01-30T02:18:19;5.50;;;4.43;;
42194;SDS011;27863;49.440;11.102;2024-01-30T02:21:21;5.10;;;4.57;;
42194;SDS011;27863;49.440;11.102;2024-01-30T02:24:22;5.13;;;4.60;;
42194;SDS011;27863;49.440;11.102;2024-01-30T02:27:24;4.03;;;3.63;;
42194;SDS011;27863;49.440;11.102;2024-01-30T02:30:25;4.83;;;4.33;;
42194;SDS011;27863;49.440;11.102;2024-01-30T02:33:26;5.00;;;3.73;;
42194;SDS011;27863;49.440;11.102;2024-01-30T02:36:28;5.83;;;4.70;;
42194;SDS011;27863;49.440;11.102;2024-01-30T02:39:32;4.57;;;4.03;;
42194;SDS011;27863;49.440;11.102;2024-01-30T02:42:32;6.83;;;5.17;;
42194;SDS011;27863;49.440;11.102;2024-01-30T02:45:33;4.10;;;3.70;;
42194;SDS011;27863;49.440;11.102;2024-01-30T02:48:33;4.73;;;4.17;;
42194;SDS011;27863;49.440;11.102;2024-01-30T02:51:34;5.47;;;4.73;;
42194;SDS011;27863;49.440;11.102;2024-01-30T02:54:34;6.13;;;4.43;;
42194;SDS011;27863;49.440;11.102;2024-01-30T02:57:34;5.30;;;4.30;;
42194;SDS011;27863;49.440;11.102;2024-01-30T03:00:35;4.60;;;4.20;;
42194;SDS011;27863;49.440;11.102;2024-01-30T03:03:36;5.20;;;4.33;;
42194;SDS011;27863;49.440;11.102;2024-01-30T03:06:36;4.97;;;3.90;;
42194;SDS011;27863;49.440;11.102;2024-01-30T03:09:37;5.83;;;5.33;;
42194;SDS011;27863;49.440;11.102;2024-01-30T03:12:37;5.37;;;4.13;;
42194;SDS011;27863;49.440;11.102;2024-01-30T03:15:38;6.23;;;3.63;;
42194;SDS011;27863;49.440;11.102;2024-01-30T03:18:38;5.37;;;4.73;;
42194;SDS011;27863;49.440;11.102;2024-01-30T03:21:39;6.43;;;4.33;;
42194;SDS011;27863;49.440;11.102;2024-01-30T03:24:39;5.67;;;4.80;;
42194;SDS011;27863;49.440;11.102;2024-01-30T03:27:40;4.20;;;3.80;;
42194;SDS011;27863;49.440;11.102;2024-01-30T03:30:40;4.77;;;4.27;;
42194;SDS011;27863;49.440;11.102;2024-01-30T03:33:41;11.77;;;4.70;;
42194;SDS011;27863;49.440;11.102;2024-01-30T03:36:41;5.57;;;4.37;;
42194;SDS011;27863;49.440;11.102;2024-01-30T03:39:42;5.00;;;4.60;;
42194;SDS011;27863;49.440;11.102;2024-01-30T03:42:43;5.13;;;4.73;;
42194;SDS011;27863;49.440;11.102;2024-01-30T03:45:43;4.60;;;4.20;;
42194;SDS011;27863;49.440;11.102;2024-01-30T03:48:44;5.33;;;4.53;;
42194;SDS011;27863;49.440;11.102;2024-01-30T03:51:45;5.00;;;4.50;;
42194;SDS011;27863;49.440;11.102;2024-01-30T03:54:47;5.43;;;4.80;;
42194;SDS011;27863;49.440;11.102;2024-01-30T03:57:48;6.40;;;5.20;;
42194;SDS011;27863;49.440;11.102;2024-01-30T04:00:49;5.07;;;4.57;;
42194;SDS011;27863;49.440;11.102;2024-01-30T04:03:50;5.27;;;4.73;;
42194;SDS011;27863;49.440;11.102;2024-01-30T04:06:51;5.77;;;5.13;;
42194;SDS011;27863;49.440;11.102;2024-01-30T04:09:53;5.37;;;4.87;;
42194;SDS011;27863;49.440;11.102;2024-01-30T04:12:54;5.27;;;4.77;;
42194;SDS011;27863;49.440;11.102;2024-01-30T04:15:54;4.83;;;4.33;;
42194;SDS011;27863;49.440;11.102;2024-01-30T04:18:56;5.93;;;5.00;;
42194;SDS011;27863;49.440;11.102;2024-01-30T04:21:57;4.87;;;4.47;;
42194;SDS011;27863;49.440;11.102;2024-01-30T04:24:58;5.20;;;4.80;;
42194;SDS011;27863;49.440;11.102;2024-01-30T04:27:58;5.03;;;4.63;;
42194;SDS011;27863;49.440;11.102;2024-01-30T04:31:00;5.97;;;5.27;;
42194;SDS011;27863;49.440;11.102;2024-01-30T04:34:00;6.03;;;5.30;;
42194;SDS011;27863;49.440;11.102;2024-01-30T04:37:04;6.67;;;6.07;;
42194;SDS011;27863;49.440;11.102;2024-01-30T04:40:05;7.97;;;7.10;;
42194;SDS011;27863;49.440;11.102;2024-01-30T04:43:07;5.53;;;5.03;;
42194;SDS011;27863;49.440;11.102;2024-01-30T04:46:07;5.63;;;5.07;;
42194;SDS011;27863;49.440;11.102;2024-01-30T04:49:08;6.27;;;5.67;;
42194;SDS011;27863;49.440;11.102;2024-01-30T04:52:08;5.87;;;5.37;;
42194;SDS011;27863;49.440;11.102;2024-01-30T04:55:09;6.47;;;5.87;;
42194;SDS011;27863;49.440;11.102;2024-01-30T04:58:09;5.53;;;5.03;;
42194;SDS011;27863;49.440;11.102;2024-01-30T05:01:14;7.23;;;5.20;;
42194;SDS011;27863;49.440;11.102;2024-01-30T05:04:15;5.67;;;5.07;;
42194;SDS011;27863;49.440;11.102;2024-01-30T05:07:18;6.17;;;4.33;;
42194;SDS011;27863;49.440;11.102;2024-01-30T05:10:20;5.60;;;5.10;;
42194;SDS011;27863;49.440;11.102;2024-01-30T05:13:20;6.20;;;5.60;;
42194;SDS011;27863;49.440;11.102;2024-01-30T05:16:22;13.23;;;5.23;;
42194;SDS011;27863;49.440;11.102;2024-01-30T05:19:23;5.53;;;5.03;;
42194;SDS011;27863;49.440;11.102;2024-01-30T05:22:24;5.73;;;5.13;;
42194;SDS011;27863;49.440;11.102;2024-01-30T05:25:25;5.53;;;5.03;;
42194;SDS011;27863;49.440;11.102;2024-01-30T05:28:26;6.07;;;5.13;;
42194;SDS011;27863;49.440;11.102;2024-01-30T05:31:26;6.07;;;5.47;;
42194;SDS011;27863;49.440;11.102;2024-01-30T05:34:27;6.60;;;5.17;;
42194;SDS011;27863;49.440;11.102;2024-01-30T05:37:28;6.00;;;5.33;;
42194;SDS011;27863;49.440;11.102;2024-01-30T05:40:28;6.67;;;5.47;;
42194;SDS011;27863;49.440;11.102;2024-01-30T05:43:29;6.57;;;5.10;;
42194;SDS011;27863;49.440;11.102;2024-01-30T05:46:29;7.77;;;5.53;;
42194;SDS011;27863;49.440;11.102;2024-01-30T05:49:30;6.23;;;5.63;;
42194;SDS011;27863;49.440;11.102;2024-01-30T05:52:30;7.83;;;6.50;;
42194;SDS011;27863;49.440;11.102;2024-01-30T05:55:31;7.93;;;6.57;;
42194;SDS011;27863;49.440;11.102;2024-01-30T05:58:31;7.43;;;6.73;;
42194;SDS011;27863;49.440;11.102;2024-01-30T06:01:31;6.50;;;5.77;;
42194;SDS011;27863;49.440;11.102;2024-01-30T06:04:33;6.53;;;5.93;;
42194;SDS011;27863;49.440;11.102;2024-01-30T06:07:33;7.10;;;6.37;;
42194;SDS011;27863;49.440;11.102;2024-01-30T06:10:35;7.30;;;6.57;;
42194;SDS011;27863;49.440;11.102;2024-01-30T06:13:36;9.67;;;5.87;;
42194;SDS011;27863;49.440;11.102;2024-01-30T06:16:41;8.03;;;5.60;;
42194;SDS011;27863;49.440;11.102;2024-01-30T06:19:43;7.87;;;7.03;;
42194;SDS011;27863;49.440;11.102;2024-01-30T06:22:44;9.70;;;6.13;;
42194;SDS011;27863;49.440;11.102;2024-01-30T06:25:45;7.60;;;6.90;;
42194;SDS011;27863;49.440;11.102;2024-01-30T06:28:45;6.93;;;6.30;;
42194;SDS011;27863;49.440;11.102;2024-01-30T06:31:45;7.57;;;6.83;;
42194;SDS011;27863;49.440;11.102;2024-01-30T06:34:49;8.07;;;7.27;;
42194;SDS011;27863;49.440;11.102;2024-01-30T06:37:50;7.87;;;6.90;;
42194;SDS011;27863;49.440;11.102;2024-01-30T06:40:50;7.70;;;6.93;;
42194;SDS011;27863;49.440;11.102;2024-01-30T06:43:51;13.07;;;7.67;;
42194;SDS011;27863;49.440;11.102;2024-01-30T06:46:52;8.07;;;6.67;;
42194;SDS011;27863;49.440;11.102;2024-01-30T06:49:52;10.13;;;8.57;;
42194;SDS011;27863;49.440;11.102;2024-01-30T06:52:53;8.83;;;8.03;;
42194;SDS011;27863;49.440;11.102;2024-01-30T06:55:56;9.17;;;8.17;;
42194;SDS011;27863;49.440;11.102;2024-01-30T06:58:56;8.17;;;7.37;;
42194;SDS011;27863;49.440;11.102;2024-01-30T07:01:59;9.87;;;7.53;;
42194;SDS011;27863;49.440;11.102;2024-01-30T07:05:00;8.10;;;7.40;;
42194;SDS011;27863;49.440;11.102;2024-01-30T07:08:00;13.33;;;9.03;;
42194;SDS011;27863;49.440;11.102;2024-01-30T07:11:01;10.17;;;8.40;;
42194;SDS011;27863;49.440;11.102;2024-01-30T07:14:01;18.23;;;8.43;;
42194;SDS011;27863;49.440;11.102;2024-01-30T07:17:05;15.47;;;7.73;;
42194;SDS011;27863;49.440;11.102;2024-01-30T07:20:06;9.70;;;8.77;;
42194;SDS011;27863;49.440;11.102;2024-01-30T07:23:07;16.97;;;8.97;;
42194;SDS011;27863;49.440;11.102;2024-01-30T07:26:11;11.07;;;8.90;;
42194;SDS011;27863;49.440;11.102;2024-01-30T07:29:13;10.13;;;9.13;;
42194;SDS011;27863;49.440;11.102;2024-01-30T07:32:13;12.67;;;9.73;;
42194;SDS011;27863;49.440;11.102;2024-01-30T07:35:14;9.40;;;8.50;;
42194;SDS011;27863;49.440;11.102;2024-01-30T07:38:15;10.20;;;9.23;;
42194;SDS011;27863;49.440;11.102;2024-01-30T07:41:16;9.10;;;8.20;;
42194;SDS011;27863;49.440;11.102;2024-01-30T07:44:16;9.43;;;8.37;;
42194;SDS011;27863;49.440;11.102;2024-01-30T07:47:17;9.47;;;8.57;;
42194;SDS011;27863;49.440;11.102;2024-01-30T07:50:17;9.73;;;8.83;;
42194;SDS011;27863;49.440;11.102;2024-01-30T07:53:19;9.43;;;8.23;;
42194;SDS011;27863;49.440;11.102;2024-01-30T07:56:19;10.03;;;9.13;;
42194;SDS011;27863;49.440;11.102;2024-01-30T07:59:20;13.53;;;9.17;;
42194;SDS011;27863;49.440;11.102;2024-01-30T08:02:27;10.90;;;9.80;;
42194;SDS011;27863;49.440;11.102;2024-01-30T08:05:28;9.63;;;8.73;;
42194;SDS011;27863;49.440;11.102;2024-01-30T08:08:28;9.67;;;8.70;;
42194;SDS011;27863;49.440;11.102;2024-01-30T08:11:29;9.43;;;8.63;;
42194;SDS011;27863;49.440;11.102;2024-01-30T08:14:29;9.93;;;8.93;;
42194;SDS011;27863;49.440;11.102;2024-01-30T08:17:30;15.23;;;9.80;;
42194;SDS011;27863;49.440;11.102;2024-01-30T08:20:30;11.53;;;10.00;;
42194;SDS011;27863;49.440;11.102;2024-01-30T08:23:34;11.23;;;10.20;;
42194;SDS011;27863;49.440;11.102;2024-01-30T08:26:34;13.20;;;10.67;;
42194;SDS011;27863;49.440;11.102;2024-01-30T08:29:35;11.20;;;10.10;;
42194;SDS011;27863;49.440;11.102;2024-01-30T08:32:36;14.70;;;10.17;;
42194;SDS011;27863;49.440;11.102;2024-01-30T08:35:37;11.90;;;10.73;;
42194;SDS011;27863;49.440;11.102;2024-01-30T08:38:38;10.60;;;9.30;;
42194;SDS011;27863;49.440;11.102;2024-01-30T08:41:39;12.10;;;11.00;;
42194;SDS011;27863;49.440;11.102;2024-01-30T08:44:42;11.77;;;10.57;;
42194;SDS011;27863;49.440;11.102;2024-01-30T08:47:42;11.00;;;9.90;;
42194;SDS011;27863;49.440;11.102;2024-01-30T08:50:43;12.70;;;11.50;;
42194;SDS011;27863;49.440;11.102;2024-01-30T08:54:06;16.27;;;10.33;;
42194;SDS011;27863;49.440;11.102;2024-01-30T08:57:07;14.27;;;10.97;;
42194;SDS011;27863;49.440;11.102;2024-01-30T09:00:08;12.40;;;11.13;;
42194;SDS011;27863;49.440;11.102;2024-01-30T09:03:11;12.77;;;11.57;;
42194;SDS011;27863;49.440;11.102;2024-01-30T09:06:12;11.40;;;10.50;;
42194;SDS011;27863;49.440;11.102;2024-01-30T09:09:13;12.63;;;11.03;;
42194;SDS011;27863;49.440;11.102;2024-01-30T09:12:14;13.80;;;9.60;;
42194;SDS011;27863;49.440;11.102;2024-01-30T09:15:15;16.50;;;11.13;;
42194;SDS011;27863;49.440;11.102;2024-01-30T09:18:16;13.13;;;11.00;;
42194;SDS011;27863;49.440;11.102;2024-01-30T09:21:16;32.37;;;11.77;;
42194;SDS011;27863;49.440;11.102;2024-01-30T09:24:17;11.23;;;10.13;;
42194;SDS011;27863;49.440;11.102;2024-01-30T09:27:17;14.57;;;12.93;;
42194;SDS011;27863;49.440;11.102;2024-01-30T09:30:19;14.83;;;12.00;;
42194;SDS011;27863;49.440;11.102;2024-01-30T09:33:20;12.47;;;10.30;;
42194;SDS011;27863;49.440;11.102;2024-01-30T09:36:21;11.77;;;10.60;;
42194;SDS011;27863;49.440;11.102;2024-01-30T09:39:22;12.33;;;11.23;;
42194;SDS011;27863;49.440;11.102;2024-01-30T09:42:35;11.00;;;9.93;;
42194;SDS011;27863;49.440;11.102;2024-01-30T09:45:36;18.30;;;10.30;;
42194;SDS011;27863;49.440;11.102;2024-01-30T09:48:36;10.83;;;9.77;;
42194;SDS011;27863;49.440;11.102;2024-01-30T09:51:37;11.07;;;9.93;;
42194;SDS011;27863;49.440;11.102;2024-01-30T09:54:38;11.93;;;10.63;;
42194;SDS011;27863;49.440;11.102;2024-01-30T09:57:39;11.20;;;9.73;;
42194;SDS011;27863;49.440;11.102;2024-01-30T10:00:40;13.87;;;11.07;;
42194;SDS011;27863;49.440;11.102;2024-01-30T10:03:40;18.27;;;9.87;;
42194;SDS011;27863;49.440;11.102;2024-01-30T10:06:41;14.97;;;9.70;;
42194;SDS011;27863;49.440;11.102;2024-01-30T10:09:42;11.03;;;10.13;;
42194;SDS011;27863;49.440;11.102;2024-01-30T10:12:42;12.67;;;11.37;;
42194;SDS011;27863;49.440;11.102;2024-01-30T10:15:44;10.23;;;9.43;;
42194;SDS011;27863;49.440;11.102;2024-01-30T10:18:45;11.37;;;10.37;;
42194;SDS011;27863;49.440;11.102;2024-01-30T10:21:47;10.77;;;9.77;;
42194;SDS011;27863;49.440;11.102;2024-01-30T10:24:48;10.27;;;9.40;;
42194;SDS011;27863;49.440;11.102;2024-01-30T10:27:52;11.80;;;9.67;;
42194;SDS011;27863;49.440;11.102;2024-01-30T10:30:57;11.73;;;10.73;;
42194;SDS011;27863;49.440;11.102;2024-01-30T10:33:59;11.33;;;10.27;;
42194;SDS011;27863;49.440;11.102;2024-01-30T10:37:10;15.03;;;12.97;;
42194;SDS011;27863;49.440;11.102;2024-01-30T10:40:19;9.40;;;8.47;;
42194;SDS011;27863;49.440;11.102;2024-01-30T10:43:20;10.37;;;9.27;;
42194;SDS011;27863;49.440;11.102;2024-01-30T10:46:22;11.13;;;9.87;;
42194;SDS011;27863;49.440;11.102;2024-01-30T10:49:28;12.20;;;10.50;;
42194;SDS011;27863;49.440;11.102;2024-01-30T10:52:29;10.50;;;9.23;;
42194;SDS011;27863;49.440;11.102;2024-01-30T10:55:31;16.80;;;15.13;;
42194;SDS011;27863;49.440;11.102;2024-01-30T10:58:32;12.93;;;10.80;;
42194;SDS011;27863;49.440;11.102;2024-01-30T11:01:32;12.03;;;10.00;;
42194;SDS011;27863;49.440;11.102;2024-01-30T11:04:37;12.27;;;10.27;;
42194;SDS011;27863;49.440;11.102;2024-01-30T11:07:39;10.83;;;9.87;;
42194;SDS011;27863;49.440;11.102;2024-01-30T11:10:46;11.50;;;9.63;;
42194;SDS011;27863;49.440;11.102;2024-01-30T11:13:50;11.40;;;9.47;;
42194;SDS011;27863;49.440;11.102;2024-01-30T11:16:51;11.83;;;10.57;;
42194;SDS011;27863;49.440;11.102;2024-01-30T11:19:51;16.77;;;13.97;;
42194;SDS011;27863;49.440;11.102;2024-01-30T11:22:52;84.17;;;27.17;;
42194;SDS011;27863;49.440;11.102;2024-01-30T11:25:54;10.33;;;9.07;;
42194;SDS011;27863;49.440;11.102;2024-01-30T11:28:57;28.53;;;15.83;;
42194;SDS011;27863;49.440;11.102;2024-01-30T11:31:58;11.73;;;9.13;;
42194;SDS011;27863;49.440;11.102;2024-01-30T11:34:59;9.83;;;8.93;;
42194;SDS011;27863;49.440;11.102;2024-01-30T11:38:00;10.43;;;9.47;;
42194;SDS011;27863;49.440;11.102;2024-01-30T11:41:02;10.37;;;9.40;;
42194;SDS011;27863;49.440;11.102;2024-01-30T11:44:03;14.33;;;9.93;;
42194;SDS011;27863;49.440;11.102;2024-01-30T11:47:04;13.27;;;11.90;;
42194;SDS011;27863;49.440;11.102;2024-01-30T11:50:05;14.87;;;13.30;;
42194;SDS011;27863;49.440;11.102;2024-01-30T11:53:06;47.73;;;20.70;;
42194;SDS011;27863;49.440;11.102;2024-01-30T11:56:07;14.43;;;12.93;;
42194;SDS011;27863;49.440;11.102;2024-01-30T11:59:08;13.90;;;12.53;;
42194;SDS011;27863;49.440;11.102;2024-01-30T12:02:09;17.70;;;15.90;;
42194;SDS011;27863;49.440;11.102;2024-01-30T12:05:15;11.23;;;10.10;;
42194;SDS011;27863;49.440;11.102;2024-01-30T12:08:16;13.17;;;10.97;;
42194;SDS011;27863;49.440;11.102;2024-01-30T12:11:17;14.87;;;9.63;;
42194;SDS011;27863;49.440;11.102;2024-01-30T12:14:17;14.03;;;9.30;;
42194;SDS011;27863;49.440;11.102;2024-01-30T12:17:37;9.80;;;8.80;;
42194;SDS011;27863;49.440;11.102;2024-01-30T12:20:39;10.67;;;9.30;;
42194;SDS011;27863;49.440;11.102;2024-01-30T12:23:39;13.63;;;9.03;;
42194;SDS011;27863;49.440;11.102;2024-01-30T12:26:40;9.00;;;7.83;;
42194;SDS011;27863;49.440;11.102;2024-01-30T12:29:55;10.40;;;9.40;;
42194;SDS011;27863;49.440;11.102;2024-01-30T12:33:02;9.67;;;8.87;;
42194;SDS011;27863;49.440;11.102;2024-01-30T12:36:04;10.67;;;8.53;;
42194;SDS011;27863;49.440;11.102;2024-01-30T12:39:05;11.17;;;8.90;;
42194;SDS011;27863;49.440;11.102;2024-01-30T12:42:06;10.37;;;8.90;;
42194;SDS011;27863;49.440;11.102;2024-01-30T12:45:07;9.80;;;8.90;;
42194;SDS011;27863;49.440;11.102;2024-01-30T12:48:08;9.30;;;8.40;;
42194;SDS011;27863;49.440;11.102;2024-01-30T12:51:09;8.83;;;7.97;;
42194;SDS011;27863;49.440;11.102;2024-01-30T12:54:09;9.60;;;8.70;;
42194;SDS011;27863;49.440;11.102;2024-01-30T12:57:10;9.60;;;8.37;;
42194;SDS011;27863;49.440;11.102;2024-01-30T13:00:11;9.03;;;8.13;;
42194;SDS011;27863;49.440;11.102;2024-01-30T13:03:12;9.17;;;8.30;;
42194;SDS011;27863;49.440;11.102;2024-01-30T13:06:12;12.23;;;9.07;;
42194;SDS011;27863;49.440;11.102;2024-01-30T13:09:13;9.87;;;8.83;;
42194;SDS011;27863;49.440;11.102;2024-01-30T13:12:13;9.90;;;8.90;;
42194;SDS011;27863;49.440;11.102;2024-01-30T13:15:14;9.40;;;8.50;;
42194;SDS011;27863;49.440;11.102;2024-01-30T13:18:15;9.63;;;8.77;;
42194;SDS011;27863;49.440;11.102;2024-01-30T13:21:15;10.43;;;8.43;;
42194;SDS011;27863;49.440;11.102;2024-01-30T13:24:16;10.53;;;9.53;;
42194;SDS011;27863;49.440;11.102;2024-01-30T13:27:17;10.73;;;9.60;;
42194;SDS011;27863;49.440;11.102;2024-01-30T13:30:17;10.83;;;9.83;;
42194;SDS011;27863;49.440;11.102;2024-01-30T13:33:18;14.03;;;9.13;;
42194;SDS011;27863;49.440;11.102;2024-01-30T13:36:19;11.13;;;9.83;;
42194;SDS011;27863;49.440;11.102;2024-01-30T13:39:19;11.43;;;10.43;;
42194;SDS011;27863;49.440;11.102;2024-01-30T13:42:20;11.33;;;10.23;;
42194;SDS011;27863;49.440;11.102;2024-01-30T13:45:20;13.30;;;10.13;;
42194;SDS011;27863;49.440;11.102;2024-01-30T13:48:21;13.60;;;10.40;;
42194;SDS011;27863;49.440;11.102;2024-01-30T13:51:21;12.97;;;10.47;;
42194;SDS011;27863;49.440;11.102;2024-01-30T13:54:22;12.07;;;10.77;;
42194;SDS011;27863;49.440;11.102;2024-01-30T13:57:24;11.93;;;10.47;;
42194;SDS011;27863;49.440;11.102;2024-01-30T14:00:25;12.33;;;11.23;;
42194;SDS011;27863;49.440;11.102;2024-01-30T14:03:26;12.10;;;10.97;;
42194;SDS011;27863;49.440;11.102;2024-01-30T14:06:26;11.87;;;10.63;;
42194;SDS011;27863;49.440;11.102;2024-01-30T14:09:27;14.27;;;9.57;;
42194;SDS011;27863;49.440;11.102;2024-01-30T14:12:28;10.07;;;8.93;;
42194;SDS011;27863;49.440;11.102;2024-01-30T14:15:30;9.20;;;8.40;;
42194;SDS011;27863;49.440;11.102;2024-01-30T14:18:30;9.30;;;8.50;;
42194;SDS011;27863;49.440;11.102;2024-01-30T14:21:31;14.47;;;13.10;;
42194;SDS011;27863;49.440;11.102;2024-01-30T14:24:31;10.47;;;9.47;;
42194;SDS011;27863;49.440;11.102;2024-01-30T14:27:32;9.37;;;8.47;;
42194;SDS011;27863;49.440;11.102;2024-01-30T14:30:33;8.73;;;7.93;;
42194;SDS011;27863;49.440;11.102;2024-01-30T14:33:34;11.20;;;8.80;;
42194;SDS011;27863;49.440;11.102;2024-01-30T14:36:34;12.43;;;9.33;;
42194;SDS011;27863;49.440;11.102;2024-01-30T14:39:35;11.37;;;8.20;;
42194;SDS011;27863;49.440;11.102;2024-01-30T14:42:37;10.37;;;9.27;;
42194;SDS011;27863;49.440;11.102;2024-01-30T14:45:37;11.37;;;9.33;;
42194;SDS011;27863;49.440;11.102;2024-01-30T14:48:42;10.00;;;9.00;;
42194;SDS011;27863;49.440;11.102;2024-01-30T14:51:43;15.20;;;9.60;;
42194;SDS011;27863;49.440;11.102;2024-01-30T14:54:45;10.00;;;9.00;;
42194;SDS011;27863;49.440;11.102;2024-01-30T14:57:46;9.43;;;8.63;;
42194;SDS011;27863;49.440;11.102;2024-01-30T15:00:46;15.57;;;9.77;;
42194;SDS011;27863;49.440;11.102;2024-01-30T15:03:48;11.13;;;8.57;;
42194;SDS011;27863;49.440;11.102;2024-01-30T15:06:51;10.47;;;9.47;;
42194;SDS011;27863;49.440;11.102;2024-01-30T15:09:53;13.93;;;7.90;;
42194;SDS011;27863;49.440;11.102;2024-01-30T15:12:54;14.27;;;8.97;;
42194;SDS011;27863;49.440;11.102;2024-01-30T15:15:55;9.13;;;8.23;;
42194;SDS011;27863;49.440;11.102;2024-01-30T15:18:55;13.70;;;9.47;;
42194;SDS011;27863;49.440;11.102;2024-01-30T15:21:56;13.63;;;9.60;;
42194;SDS011;27863;49.440;11.102;2024-01-30T15:24:57;17.30;;;9.93;;
42194;SDS011;27863;49.440;11.102;2024-01-30T15:27:57;13.37;;;9.77;;
42194;SDS011;27863;49.440;11.102;2024-01-30T15:30:58;15.33;;;10.33;;
42194;SDS011;27863;49.440;11.102;2024-01-30T15:34:00;9.67;;;8.70;;
42194;SDS011;27863;49.440;11.102;2024-01-30T15:37:02;10.57;;;9.47;;
42194;SDS011;27863;49.440;11.102;2024-01-30T15:40:03;18.97;;;8.27;;
42194;SDS011;27863;49.440;11.102;2024-01-30T15:43:09;9.87;;;8.97;;
42194;SDS011;27863;49.440;11.102;2024-01-30T15:46:11;10.90;;;9.67;;
42194;SDS011;27863;49.440;11.102;2024-01-30T15:49:12;10.67;;;9.57;;
42194;SDS011;27863;49.440;11.102;2024-01-30T15:52:12;10.13;;;9.23;;
42194;SDS011;27863;49.440;11.102;2024-01-30T15:55:19;9.43;;;8.53;;
42194;SDS011;27863;49.440;11.102;2024-01-30T15:58:21;9.67;;;8.77;;
42194;SDS011;27863;49.440;11.102;2024-01-30T16:01:21;10.23;;;8.60;;
42194;SDS011;27863;49.440;11.102;2024-01-30T16:04:22;9.70;;;8.70;;
42194;SDS011;27863;49.440;11.102;2024-01-30T16:07:25;21.57;;;8.67;;
42194;SDS011;27863;49.440;11.102;2024-01-30T16:10:25;11.60;;;8.80;;
42194;SDS011;27863;49.440;11.102;2024-01-30T16:13:26;13.33;;;8.70;;
42194;SDS011;27863;49.440;11.102;2024-01-30T16:16:27;18.67;;;15.03;;
42194;SDS011;27863;49.440;11.102;2024-01-30T16:19:27;20.07;;;11.53;;
42194;SDS011;27863;49.440;11.102;2024-01-30T16:22:28;14.93;;;9.30;;
42194;SDS011;27863;49.440;11.102;2024-01-30T16:25:28;9.57;;;8.67;;
42194;SDS011;27863;49.440;11.102;2024-01-30T16:28:29;14.13;;;12.83;;
42194;SDS011;27863;49.440;11.102;2024-01-30T16:31:33;22.80;;;19.77;;
42194;SDS011;27863;49.440;11.102;2024-01-30T16:34:35;13.43;;;11.07;;
42194;SDS011;27863;49.440;11.102;2024-01-30T16:37:36;12.23;;;11.03;;
42194;SDS011;27863;49.440;11.102;2024-01-30T16:40:38;12.90;;;11.30;;
42194;SDS011;27863;49.440;11.102;2024-01-30T16:43:39;21.43;;;10.23;;
42194;SDS011;27863;49.440;11.102;2024-01-30T16:46:40;11.83;;;10.33;;
42194;SDS011;27863;49.440;11.102;2024-01-30T16:49:41;12.57;;;8.97;;
42194;SDS011;27863;49.440;11.102;2024-01-30T16:52:43;9.80;;;8.80;;
42194;SDS011;27863;49.440;11.102;2024-01-30T16:55:44;13.37;;;9.83;;
42194;SDS011;27863;49.440;11.102;2024-01-30T16:58:47;11.77;;;9.00;;
42194;SDS011;27863;49.440;11.102;2024-01-30T17:01:48;12.00;;;9.83;;
42194;SDS011;27863;49.440;11.102;2024-01-30T17:04:48;11.87;;;10.10;;
42194;SDS011;27863;49.440;11.102;2024-01-30T17:07:49;10.80;;;9.70;;
42194;SDS011;27863;49.440;11.102;2024-01-30T17:10:50;14.20;;;12.90;;
42194;SDS011;27863;49.440;11.102;2024-01-30T17:13:50;11.13;;;10.03;;
42194;SDS011;27863;49.440;11.102;2024-01-30T17:16:52;10.73;;;9.73;;
42194;SDS011;27863;49.440;11.102;2024-01-30T17:19:53;12.10;;;10.50;;
42194;SDS011;27863;49.440;11.102;2024-01-30T17:22:53;12.70;;;11.10;;
42194;SDS011;27863;49.440;11.102;2024-01-30T17:25:54;11.97;;;10.90;;
42194;SDS011;27863;49.440;11.102;2024-01-30T17:28:54;9.67;;;8.83;;
42194;SDS011;27863;49.440;11.102;2024-01-30T17:31:55;12.33;;;11.23;;
42194;SDS011;27863;49.440;11.102;2024-01-30T17:34:55;11.33;;;10.27;;
42194;SDS011;27863;49.440;11.102;2024-01-30T17:37:56;13.23;;;10.53;;
42194;SDS011;27863;49.440;11.102;2024-01-30T17:40:57;11.23;;;10.20;;
42194;SDS011;27863;49.440;11.102;2024-01-30T17:43:59;13.70;;;10.77;;
42194;SDS011;27863;49.440;11.102;2024-01-30T17:46:59;11.33;;;10.30;;